Time;durP1;ratioP1;P1;durP2;ratioP2;P2;SDS_P1;SDS_P2;PMS_P1;PMS_P2;Temp;Humidity;BMP_temperature;BMP_pressure;BME280_temperature;BME280_humidity;BME280_pressure;Samples;Min_cycle;Max_cycle;Signal;HPM_P1;HPM_P2
2022/07/05 00:00:48;;;;;;;1999.90;999.90;;;16.30;99.90;;;;;;5070286;28;20559;-73
2022/07/05 00:03:16;;;;;;;1999.90;999.90;;;16.20;99.90;;;;;;5068515;28;20508;-68
2022/07/05 00:05:43;;;;;;;1999.90;999.90;;;16.10;99.90;;;;;;5060901;28;20457;-70
2022/07/05 00:08:09;;;;;;;1999.90;999.90;;;16.10;99.90;;;;;;5069242;28;20461;-65
2022/07/05 00:10:39;;;;;;;1999.90;999.90;;;16.20;99.90;;;;;;5070942;28;20449;-69
2022/07/05 00:13:07;;;;;;;1999.90;999.90;;;16.40;99.90;;;;;;5070406;28;20473;-68
2022/07/05 00:15:34;;;;;;;1999.90;999.90;;;16.40;99.90;;;;;;5065995;28;20474;-68
2022/07/05 00:18:00;;;;;;;1999.90;999.90;;;16.60;99.90;;;;;;5069120;28;20457;-67
2022/07/05 00:20:28;;;;;;;1999.90;999.90;;;16.50;99.90;;;;;;5068139;28;20459;-70
2022/07/05 00:22:55;;;;;;;1999.90;999.90;;;16.60;99.90;;;;;;5068305;28;20929;-69
2022/07/05 00:25:21;;;;;;;1999.90;999.90;;;16.60;99.90;;;;;;5066860;28;20461;-68
2022/07/05 00:27:48;;;;;;;1999.90;999.90;;;16.60;99.90;;;;;;5066853;28;20485;-68
2022/07/05 00:30:15;;;;;;;1999.90;999.90;;;16.70;99.90;;;;;;5067361;28;20462;-68
2022/07/05 00:32:42;;;;;;;1999.90;999.90;;;16.80;99.90;;;;;;5067918;28;20453;-67
2022/07/05 00:35:09;;;;;;;1999.90;999.90;;;16.80;99.90;;;;;;5068166;28;20514;-69
2022/07/05 00:37:37;;;;;;;1999.90;999.90;;;16.80;99.90;;;;;;5067105;28;20506;-69
2022/07/05 00:40:05;;;;;;;1999.90;999.90;;;16.80;99.90;;;;;;5068458;28;20514;-69
2022/07/05 00:42:32;;;;;;;1999.90;999.90;;;16.80;99.90;;;;;;5071889;28;20485;-68
2022/07/05 00:44:59;;;;;;;1999.90;999.90;;;16.80;99.90;;;;;;5073167;28;20485;-68
2022/07/05 00:47:25;;;;;;;1999.90;999.90;;;16.80;99.90;;;;;;5073798;28;20457;-68
2022/07/05 00:49:52;;;;;;;1999.90;999.90;;;16.60;99.90;;;;;;5072822;28;20506;-68
2022/07/05 00:52:19;;;;;;;1999.90;999.90;;;16.70;99.90;;;;;;5070810;28;20449;-68
2022/07/05 00:54:48;;;;;;;1999.90;999.90;;;16.60;99.90;;;;;;5073484;28;22249;-68
2022/07/05 00:57:15;;;;;;;1999.90;999.90;;;16.50;99.90;;;;;;5073789;28;20453;-66
2022/07/05 00:59:41;;;;;;;1999.90;999.90;;;16.50;99.90;;;;;;5073161;28;20816;-68
2022/07/05 01:02:08;;;;;;;1999.90;999.90;;;16.50;99.90;;;;;;5073826;28;20473;-68
2022/07/05 01:04:35;;;;;;;1999.90;999.90;;;16.50;99.90;;;;;;5072426;28;20519;-69
2022/07/05 01:07:03;;;;;;;1999.90;999.90;;;16.50;99.90;;;;;;5071746;28;20510;-69
2022/07/05 01:09:30;;;;;;;1999.90;999.90;;;16.50;99.90;;;;;;5071571;28;20457;-68
2022/07/05 01:11:58;;;;;;;1999.90;999.90;;;16.50;99.90;;;;;;5073810;28;20449;-68
2022/07/05 01:14:25;;;;;;;1999.90;999.90;;;16.40;99.90;;;;;;5071079;28;20908;-68
2022/07/05 01:16:53;;;;;;;1999.90;999.90;;;16.30;99.90;;;;;;5069085;28;20507;-69
2022/07/05 01:19:21;;;;;;;1999.90;999.90;;;16.30;99.90;;;;;;5072127;28;20819;-68
2022/07/05 01:21:50;;;;;;;1999.90;999.90;;;16.40;99.90;;;;;;5071378;28;20558;-69
2022/07/05 01:24:20;;;;;;;1999.90;999.90;;;16.40;99.90;;;;;;5071715;28;20482;-68
2022/07/05 01:26:49;;;;;;;1999.90;999.90;;;16.30;99.90;;;;;;5071446;28;20465;-69
2022/07/05 01:29:16;;;;;;;1999.90;999.90;;;16.40;99.90;;;;;;5071775;28;20457;-67
2022/07/05 01:31:44;;;;;;;1999.90;999.90;;;16.40;99.90;;;;;;5071529;28;20961;-71
2022/07/05 01:34:11;;;;;;;1999.90;999.90;;;16.20;99.90;;;;;;5070417;28;20484;-70
2022/07/05 01:36:38;;;;;;;1999.90;999.90;;;16.00;99.90;;;;;;5068378;28;20458;-70
2022/07/05 01:39:06;;;;;;;1999.90;999.90;;;16.00;99.90;;;;;;5070962;28;20949;-71
2022/07/05 01:41:34;;;;;;;1999.90;999.90;;;15.80;99.90;;;;;;5071647;28;20818;-71
2022/07/05 01:44:01;;;;;;;1999.90;999.90;;;15.90;99.90;;;;;;5070657;28;21028;-68
2022/07/05 01:46:32;;;;;;;1999.90;999.90;;;15.90;99.90;;;;;;5071456;28;20454;-68
2022/07/05 01:49:01;;;;;;;1999.90;999.90;;;15.80;99.90;;;;;;5067710;28;20460;-69
2022/07/05 01:51:33;;;;;;;1999.90;999.90;;;15.90;99.90;;;;;;5070853;28;20457;-69
2022/07/05 01:54:00;;;;;;;1999.90;999.90;;;15.80;99.90;;;;;;5069987;28;20473;-68
2022/07/05 01:56:27;;;;;;;1999.90;999.90;;;15.80;99.90;;;;;;5068976;28;20519;-70
2022/07/05 01:58:56;;;;;;;1999.90;999.90;;;15.90;99.90;;;;;;5071333;28;20523;-69
2022/07/05 02:01:33;;;;;;;1999.90;999.90;;;15.90;99.90;;;;;;5069455;28;20454;-69
2022/07/05 02:04:00;;;;;;;1999.90;999.90;;;15.80;99.90;;;;;;5070923;28;21011;-69
2022/07/05 02:06:26;;;;;;;1999.90;999.90;;;15.80;99.90;;;;;;5070167;28;20461;-70
2022/07/05 02:08:53;;;;;;;1999.90;999.90;;;15.60;99.90;;;;;;5069540;28;20872;-70
2022/07/05 02:11:20;;;;;;;1999.90;999.90;;;15.60;99.90;;;;;;5070298;28;20807;-70
2022/07/05 02:13:46;;;;;;;1999.90;999.90;;;15.50;99.90;;;;;;5069126;28;20474;-67
2022/07/05 02:16:14;;;;;;;1999.90;999.90;;;15.40;99.90;;;;;;5067810;28;20461;-71
2022/07/05 02:18:41;;;;;;;1999.90;999.90;;;15.20;99.90;;;;;;5069125;28;20877;-70
2022/07/05 02:21:07;;;;;;;1999.90;999.90;;;15.10;99.90;;;;;;5070884;28;20458;-70
2022/07/05 02:23:34;;;;;;;1999.90;999.90;;;15.10;99.90;;;;;;5068717;28;20544;-70
2022/07/05 02:26:01;;;;;;;1999.90;999.90;;;15.10;99.90;;;;;;5069962;28;20472;-70
2022/07/05 02:28:28;;;;;;;1999.90;999.90;;;15.20;99.90;;;;;;5068396;28;20518;-70
2022/07/05 02:30:54;;;;;;;1999.90;999.90;;;15.30;99.90;;;;;;5068227;28;20530;-70
2022/07/05 02:33:22;;;;;;;1999.90;999.90;;;15.30;99.90;;;;;;5069657;28;20473;-67
2022/07/05 02:35:49;;;;;;;1999.90;999.90;;;15.00;99.90;;;;;;5069495;28;20457;-71
2022/07/05 02:38:15;;;;;;;1999.90;999.90;;;15.00;99.90;;;;;;5068976;28;20496;-68
2022/07/05 02:40:42;;;;;;;1999.90;999.90;;;15.10;99.90;;;;;;5068612;28;20462;-71
2022/07/05 02:43:08;;;;;;;1999.90;999.90;;;14.80;99.90;;;;;;5071066;28;20488;-70
2022/07/05 02:45:35;;;;;;;1999.90;999.90;;;14.80;99.90;;;;;;5067155;28;20532;-70
2022/07/05 02:48:01;;;;;;;1999.90;999.90;;;14.80;99.90;;;;;;5069586;28;20469;-70
2022/07/05 02:50:30;;;;;;;1999.90;999.90;;;14.70;99.90;;;;;;5066221;28;21512;-70
2022/07/05 02:52:56;;;;;;;1999.90;999.90;;;14.70;99.90;;;;;;5070327;28;20957;-70
2022/07/05 02:55:23;;;;;;;1999.90;999.90;;;14.40;99.90;;;;;;5067415;28;20511;-70
2022/07/05 02:57:49;;;;;;;1999.90;999.90;;;14.40;99.90;;;;;;5068670;28;20953;-70
2022/07/05 03:00:16;;;;;;;1999.90;999.90;;;14.50;99.90;;;;;;5068057;28;20851;-69
2022/07/05 03:02:43;;;;;;;1999.90;999.90;;;14.60;99.90;;;;;;5067389;28;20477;-70
2022/07/05 03:05:10;;;;;;;1999.90;999.90;;;14.80;99.90;;;;;;5069360;28;20489;-70
2022/07/05 03:07:37;;;;;;;1999.90;999.90;;;14.90;99.90;;;;;;5065029;28;20461;-70
2022/07/05 03:10:05;;;;;;;1999.90;999.90;;;14.90;99.90;;;;;;5067150;28;20466;-70
2022/07/05 03:12:31;;;;;;;1999.90;999.90;;;14.80;99.90;;;;;;5066068;28;21829;-69
2022/07/05 03:14:58;;;;;;;1999.90;999.90;;;14.80;99.90;;;;;;5067447;28;20480;-70
2022/07/05 03:17:24;;;;;;;1999.90;999.90;;;14.60;99.90;;;;;;5068068;28;20538;-69
2022/07/05 03:19:51;;;;;;;1999.90;999.90;;;14.70;99.90;;;;;;5067416;28;20457;-70
2022/07/05 03:22:18;;;;;;;1999.90;999.90;;;14.70;99.90;;;;;;5066627;28;20543;-70
2022/07/05 03:24:45;;;;;;;1999.90;999.90;;;14.60;99.90;;;;;;5067646;28;20540;-70
2022/07/05 03:27:12;;;;;;;1999.90;999.90;;;14.50;99.90;;;;;;5066467;28;20464;-70
2022/07/05 03:29:39;;;;;;;1999.90;999.90;;;14.40;99.90;;;;;;5064957;28;20953;-70
2022/07/05 03:32:06;;;;;;;1999.90;999.90;;;14.30;99.90;;;;;;5069023;28;20461;-70
2022/07/05 03:34:33;;;;;;;1999.90;999.90;;;14.40;99.90;;;;;;5066271;28;20490;-70
2022/07/05 03:37:00;;;;;;;1999.90;999.90;;;14.30;99.90;;;;;;5065748;28;21094;-70
2022/07/05 03:39:26;;;;;;;1999.90;999.90;;;14.40;99.90;;;;;;5071103;28;20511;-70
2022/07/05 03:41:54;;;;;;;1999.90;999.90;;;14.50;99.90;;;;;;5071832;28;20510;-71
2022/07/05 03:44:21;;;;;;;1999.90;999.90;;;14.60;99.90;;;;;;5065044;28;20493;-71
2022/07/05 03:46:47;;;;;;;1999.90;999.90;;;14.70;99.90;;;;;;5066179;28;20965;-70
2022/07/05 03:49:14;;;;;;;1999.90;999.90;;;14.90;99.90;;;;;;5066620;28;20551;-71
2022/07/05 03:51:40;;;;;;;1999.90;999.90;;;15.00;99.90;;;;;;5066762;28;20844;-70
2022/07/05 03:54:07;;;;;;;1999.90;999.90;;;15.10;99.90;;;;;;5068820;28;20469;-70
2022/07/05 03:56:34;;;;;;;1999.90;999.90;;;15.10;99.90;;;;;;5064508;28;20462;-70
2022/07/05 03:59:02;;;;;;;1999.90;999.90;;;15.20;99.90;;;;;;5066551;28;20534;-70
2022/07/05 04:01:28;;;;;;;1999.90;999.90;;;15.40;99.90;;;;;;5065295;28;20503;-69
2022/07/05 04:03:55;;;;;;;1999.90;999.90;;;15.40;99.90;;;;;;5064814;28;21039;-71
2022/07/05 04:06:21;;;;;;;1999.90;999.90;;;15.30;99.90;;;;;;5078409;22;20494;-70
2022/07/05 04:08:48;;;;;;;1999.90;999.90;;;15.20;99.90;;;;;;5046068;28;20489;-70
2022/07/05 04:11:15;;;;;;;1999.90;999.90;;;15.30;99.90;;;;;;5048826;28;20457;-70
2022/07/05 04:13:42;;;;;;;1999.90;999.90;;;15.30;99.90;;;;;;5048166;28;20520;-70
2022/07/05 04:16:10;;;;;;;1999.90;999.90;;;15.30;99.90;;;;;;5046939;28;20490;-69
2022/07/05 04:18:37;;;;;;;1999.90;999.90;;;15.40;99.90;;;;;;5048181;28;20500;-69
2022/07/05 04:21:04;;;;;;;1999.90;999.90;;;15.30;99.90;;;;;;5048951;28;20845;-69
2022/07/05 04:23:30;;;;;;;1999.90;999.90;;;15.50;99.90;;;;;;5048244;28;20490;-70
2022/07/05 04:25:57;;;;;;;1999.90;999.90;;;15.60;99.90;;;;;;5047941;28;21086;-69
2022/07/05 04:28:24;;;;;;;1999.90;999.90;;;15.50;99.90;;;;;;5046801;28;20462;-70
2022/07/05 04:30:50;;;;;;;1999.90;999.90;;;15.40;99.90;;;;;;5048104;28;20516;-69
2022/07/05 04:33:18;;;;;;;1999.90;999.90;;;15.40;99.90;;;;;;5048676;28;20946;-69
2022/07/05 04:35:45;;;;;;;1999.90;999.90;;;15.50;99.90;;;;;;5047489;28;20529;-69
2022/07/05 04:38:12;;;;;;;1999.90;999.90;;;15.80;99.90;;;;;;5046730;28;20512;-69
2022/07/05 04:40:40;;;;;;;1999.90;999.90;;;16.00;99.90;;;;;;5045561;28;20466;-70
2022/07/05 04:43:07;;;;;;;1999.90;999.90;;;16.20;99.90;;;;;;5043401;28;20485;-69
2022/07/05 04:45:34;;;;;;;1999.90;999.90;;;16.30;99.90;;;;;;5046525;28;20942;-69
2022/07/05 04:48:01;;;;;;;1999.90;999.90;;;16.50;99.90;;;;;;5047830;28;21035;-69
2022/07/05 04:50:29;;;;;;;1999.90;999.90;;;16.50;99.90;;;;;;5046277;28;20512;-70
2022/07/05 04:52:55;;;;;;;1999.90;999.90;;;16.40;99.90;;;;;;5048347;28;20458;-69
2022/07/05 04:55:22;;;;;;;1999.90;999.90;;;16.50;99.90;;;;;;5047514;28;20497;-70
2022/07/05 04:57:49;;;;;;;1999.90;999.90;;;16.50;99.90;;;;;;5048723;28;20462;-70
2022/07/05 05:00:16;;;;;;;1999.90;999.90;;;16.50;99.90;;;;;;5048858;28;20946;-70
2022/07/05 05:02:42;;;;;;;1999.90;999.90;;;16.60;99.90;;;;;;5048197;28;20458;-70
2022/07/05 05:05:09;;;;;;;1999.90;999.90;;;16.70;99.90;;;;;;5046436;28;20486;-69
2022/07/05 05:07:41;;;;;;;1999.90;999.90;;;16.90;99.90;;;;;;5048585;28;20454;-68
2022/07/05 05:10:09;;;;;;;1999.90;999.90;;;17.10;99.90;;;;;;5043358;28;20567;-69
2022/07/05 05:12:35;;;;;;;1999.90;999.90;;;17.20;99.90;;;;;;5048238;28;20818;-69
2022/07/05 05:15:02;;;;;;;1999.90;999.90;;;17.30;99.90;;;;;;5046564;28;20450;-70
2022/07/05 05:17:35;;;;;;;1999.90;999.90;;;17.40;99.90;;;;;;5047548;28;20885;-69
2022/07/05 05:20:02;;;;;;;1999.90;999.90;;;17.50;99.90;;;;;;5046039;28;20454;-67
2022/07/05 05:22:29;;;;;;;1999.90;999.90;;;17.80;99.90;;;;;;5047693;28;20450;-68
2022/07/05 05:24:56;;;;;;;1999.90;999.90;;;17.80;99.90;;;;;;5048193;28;20470;-67
2022/07/05 05:27:23;;;;;;;1999.90;999.90;;;17.90;99.90;;;;;;5046333;28;20599;-67
2022/07/05 05:29:50;;;;;;;1999.90;999.90;;;17.90;99.90;;;;;;5051791;28;20513;-68
2022/07/05 05:32:16;;;;;;;1999.90;999.90;;;17.80;99.90;;;;;;5049826;28;20504;-67
2022/07/05 05:34:46;;;;;;;1999.90;999.90;;;18.00;99.90;;;;;;5049000;28;20863;-67
2022/07/05 05:37:12;;;;;;;1999.90;999.90;;;18.30;99.90;;;;;;5053694;28;20435;-68
2022/07/05 05:39:39;;;;;;;1999.90;999.90;;;18.70;99.90;;;;;;5054365;28;20442;-68
2022/07/05 05:42:08;;;;;;;1999.90;999.90;;;19.20;99.90;;;;;;5051630;28;20461;-68
2022/07/05 05:44:34;;;;;;;1999.90;999.90;;;19.10;99.90;;;;;;5049880;28;20478;-70
2022/07/05 05:47:01;;;;;;;1999.90;999.90;;;19.50;99.90;;;;;;5050607;28;20481;-70
2022/07/05 05:49:28;;;;;;;1999.90;999.90;;;19.80;99.90;;;;;;5046817;28;20492;-69
2022/07/05 05:51:54;;;;;;;1999.90;999.90;;;20.30;99.90;;;;;;5050550;28;20503;-70
2022/07/05 05:54:21;;;;;;;1999.90;999.90;;;20.70;99.90;;;;;;5051962;28;20451;-70
2022/07/05 05:56:47;;;;;;;1999.90;999.90;;;20.90;99.90;;;;;;5049193;28;20886;-70
2022/07/05 05:59:15;;;;;;;1999.90;999.90;;;21.40;99.90;;;;;;5050030;28;20454;-70
2022/07/05 06:01:42;;;;;;;1999.90;999.90;;;21.30;99.90;;;;;;5050393;28;20512;-70
2022/07/05 06:04:08;;;;;;;1999.90;999.90;;;21.10;99.90;;;;;;5050727;28;20877;-70
2022/07/05 06:06:35;;;;;;;1999.90;999.90;;;21.20;99.90;;;;;;5049866;28;20493;-71
2022/07/05 06:09:02;;;;;;;1999.90;999.90;;;20.80;99.90;;;;;;5051403;28;20922;-70
2022/07/05 06:11:28;;;;;;;1999.90;999.90;;;20.90;99.90;;;;;;5048112;28;20458;-69
2022/07/05 06:13:55;;;;;;;1999.90;999.90;;;20.80;99.90;;;;;;5051446;28;20503;-70
2022/07/05 06:16:23;;;;;;;1999.90;999.90;;;20.50;99.90;;;;;;5048079;28;21063;-70
2022/07/05 06:18:49;;;;;;;1999.90;999.90;;;20.60;99.90;;;;;;5049882;28;20496;-70
2022/07/05 06:21:16;;;;;;;1999.90;999.90;;;20.60;99.90;;;;;;5049478;28;20506;-70
2022/07/05 06:23:42;;;;;;;1999.90;999.90;;;20.70;99.90;;;;;;5047998;28;20529;-70
2022/07/05 06:26:09;;;;;;;1999.90;999.90;;;20.90;99.90;;;;;;5049805;28;20482;-70
2022/07/05 06:28:36;;;;;;;1999.90;999.90;;;21.00;99.90;;;;;;5049084;28;20470;-70
2022/07/05 06:31:02;;;;;;;1999.90;999.90;;;21.00;99.90;;;;;;5050024;28;20466;-70
2022/07/05 06:33:30;;;;;;;1999.90;999.90;;;20.80;99.90;;;;;;5049435;28;20450;-69
2022/07/05 06:35:57;;;;;;;1999.90;999.90;;;20.80;99.90;;;;;;5050153;28;20961;-70
2022/07/05 06:38:23;;;;;;;1999.90;999.90;;;20.90;99.90;;;;;;5049558;28;20513;-70
2022/07/05 06:40:50;;;;;;;1999.90;999.90;;;21.00;99.90;;;;;;5050072;28;20946;-70
2022/07/05 06:43:17;;;;;;;1999.90;999.90;;;21.40;99.90;;;;;;5049729;28;21191;-70
2022/07/05 06:45:43;;;;;;;1999.90;999.90;;;21.30;99.90;;;;;;5049706;28;21058;-70
2022/07/05 06:48:11;;;;;;;1999.90;999.90;;;21.20;99.90;;;;;;5049128;28;20520;-70
2022/07/05 06:50:41;;;;;;;1999.90;999.90;;;21.60;99.90;;;;;;5048140;28;20473;-69
2022/07/05 06:53:08;;;;;;;1999.90;999.90;;;21.90;99.90;;;;;;5050145;28;20462;-70
2022/07/05 06:55:35;;;;;;;1999.90;999.90;;;21.50;99.90;;;;;;5050074;28;20535;-70
2022/07/05 06:58:04;;;;;;;1999.90;999.90;;;21.20;99.90;;;;;;5050785;28;20458;-70
2022/07/05 07:00:31;;;;;;;1999.90;999.90;;;20.90;99.90;;;;;;5048750;28;20462;-69
2022/07/05 07:02:59;;;;;;;1999.90;999.90;;;20.80;99.90;;;;;;5047568;28;20459;-69
2022/07/05 07:05:26;;;;;;;1999.90;999.90;;;20.80;99.90;;;;;;5052819;28;20493;-69
2022/07/05 07:10:38;;;;;;;1999.90;999.90;;;20.90;99.90;;;;;;5052645;28;21067;-70
2022/07/05 07:13:05;;;;;;;1999.90;999.90;;;20.90;99.90;;;;;;5052866;28;20491;-70
2022/07/05 07:15:33;;;;;;;1999.90;999.90;;;20.80;99.90;;;;;;5052740;28;20447;-70
2022/07/05 07:18:00;;;;;;;1999.90;999.90;;;20.60;99.90;;;;;;5052592;28;20491;-70
2022/07/05 07:20:27;;;;;;;1999.90;999.90;;;20.70;99.90;;;;;;5051094;28;20484;-70
2022/07/05 07:22:54;;;;;;;1999.90;999.90;;;20.80;99.90;;;;;;5052926;28;20442;-70
2022/07/05 07:25:23;;;;;;;1999.90;999.90;;;21.30;99.90;;;;;;5052457;28;20482;-70
2022/07/05 07:27:51;;;;;;;1999.90;999.90;;;21.80;99.90;;;;;;5052781;28;20473;-70
2022/07/05 07:30:20;;;;;;;1999.90;999.90;;;22.00;99.90;;;;;;5052547;28;20500;-70
2022/07/05 07:32:47;;;;;;;1999.90;999.90;;;22.20;99.90;;;;;;5049403;28;20466;-69
2022/07/05 07:35:14;;;;;;;1999.90;999.90;;;22.40;99.90;;;;;;5050936;28;20470;-70
2022/07/05 07:37:40;;;;;;;1999.90;999.90;;;22.60;99.90;;;;;;5049670;28;20462;-69
2022/07/05 07:40:09;;;;;;;1999.90;999.90;;;22.80;99.90;;;;;;5054370;28;20496;-69
2022/07/05 07:42:36;;;;;;;1999.90;999.90;;;22.80;99.90;;;;;;5052121;28;20438;-70
2022/07/05 07:45:04;;;;;;;1999.90;999.90;;;22.90;99.90;;;;;;5047372;28;20482;-72
2022/07/05 07:47:30;;;;;;;1999.90;999.90;;;22.60;99.90;;;;;;5049442;28;20942;-70
2022/07/05 07:49:57;;;;;;;1999.90;999.90;;;23.00;99.90;;;;;;5047933;28;20500;-69
2022/07/05 07:52:24;;;;;;;1999.90;999.90;;;23.30;99.90;;;;;;5047641;28;20459;-71
2022/07/05 07:54:50;;;;;;;1999.90;999.90;;;23.10;99.90;;;;;;5047210;28;21148;-71
2022/07/05 07:57:19;;;;;;;1999.90;999.90;;;23.00;99.90;;;;;;5047193;28;20490;-71
2022/07/05 07:59:45;;;;;;;1999.90;999.90;;;23.00;99.90;;;;;;5044390;28;20454;-68
2022/07/05 08:02:12;;;;;;;1999.90;999.90;;;23.20;99.90;;;;;;5052093;28;20492;-69
2022/07/05 08:04:39;;;;;;;1999.90;999.90;;;23.10;99.90;;;;;;5052156;28;20470;-68
2022/07/05 08:07:05;;;;;;;1999.90;999.90;;;23.10;99.90;;;;;;5051772;28;20462;-71
2022/07/05 08:09:32;;;;;;;1999.90;999.90;;;23.50;99.90;;;;;;5048320;28;20946;-70
2022/07/05 08:11:59;;;;;;;1999.90;999.90;;;23.10;99.90;;;;;;5051669;28;20439;-71
2022/07/05 08:14:26;;;;;;;1999.90;999.90;;;22.80;99.90;;;;;;5051440;28;20472;-71
2022/07/05 08:16:53;;;;;;;1999.90;999.90;;;22.60;99.90;;;;;;5052028;28;20508;-71
2022/07/05 08:22:07;;;;;;;1999.90;999.90;;;22.60;99.90;;;;;;5051262;28;20505;-71
2022/07/05 08:24:35;;;;;;;1999.90;999.90;;;22.60;99.90;;;;;;5051462;28;20470;-71
2022/07/05 08:27:01;;;;;;;1999.90;999.90;;;22.70;99.90;;;;;;5051762;28;20454;-71
2022/07/05 08:29:29;;;;;;;1999.90;999.90;;;22.60;99.90;;;;;;5051649;28;20438;-71
2022/07/05 08:31:56;;;;;;;1999.90;999.90;;;22.50;99.90;;;;;;5050608;28;20442;-71
2022/07/05 08:34:22;;;;;;;1999.90;999.90;;;22.30;99.90;;;;;;5045772;28;20455;-71
2022/07/05 08:36:49;;;;;;;1999.90;999.90;;;22.40;99.90;;;;;;5045996;28;21003;-70
2022/07/05 08:39:17;;;;;;;1999.90;999.90;;;23.00;99.90;;;;;;5051426;28;20484;-68
2022/07/05 08:41:48;;;;;;;1999.90;999.90;;;23.70;99.90;;;;;;5051384;28;20922;-70
2022/07/05 08:44:18;;;;;;;1999.90;999.90;;;23.90;99.80;;;;;;5048658;28;20478;-71
2022/07/05 08:46:48;;;;;;;1999.90;999.90;;;23.90;99.60;;;;;;5043604;28;21004;-71
2022/07/05 08:49:15;;;;;;;1999.90;999.90;;;23.60;99.70;;;;;;5045902;28;20487;-71
2022/07/05 08:51:43;;;;;;;1999.90;999.90;;;23.30;99.90;;;;;;5046698;28;20459;-71
2022/07/05 08:54:11;;;;;;;1999.90;999.90;;;23.00;99.90;;;;;;5044680;28;21003;-71
2022/07/05 08:56:38;;;;;;;1999.90;999.90;;;22.70;99.90;;;;;;5046436;28;20768;-71
2022/07/05 08:59:05;;;;;;;1999.90;999.90;;;23.00;99.90;;;;;;5048017;28;20462;-69
2022/07/05 09:01:34;;;;;;;1999.90;999.90;;;23.40;99.90;;;;;;5044923;28;20513;-69
2022/07/05 09:04:05;;;;;;;1999.90;999.90;;;24.00;99.60;;;;;;5054130;28;20511;-69
2022/07/05 09:06:35;;;;;;;1999.90;999.90;;;24.10;98.40;;;;;;5055193;28;20465;-70
2022/07/05 09:09:02;;;;;;;1999.90;999.90;;;24.00;98.50;;;;;;5053738;28;20520;-70
2022/07/05 09:11:35;;;;;;;1999.90;999.90;;;23.50;99.30;;;;;;5055024;28;20483;-71
2022/07/05 09:14:04;;;;;;;1999.90;999.90;;;23.20;99.40;;;;;;5055499;28;20476;-70
2022/07/05 09:16:31;;;;;;;1999.90;999.90;;;23.00;99.90;;;;;;5054797;28;20497;-70
2022/07/05 09:19:05;;;;;;;1999.90;999.90;;;23.10;99.90;;;;;;5053668;28;20462;-71
2022/07/05 09:21:33;;;;;;;1999.90;999.90;;;23.00;99.60;;;;;;5054806;28;20496;-71
2022/07/05 09:24:03;;;;;;;1999.90;999.90;;;23.10;99.90;;;;;;5054730;28;20438;-71
2022/07/05 09:26:35;;;;;;;1999.90;999.90;;;23.20;99.20;;;;;;5055015;28;20462;-70
2022/07/05 09:29:03;;;;;;;1999.90;999.90;;;23.20;98.90;;;;;;5054317;28;20537;-71
2022/07/05 09:31:31;;;;;;;1999.90;999.90;;;23.20;99.50;;;;;;5053706;28;20458;-70
2022/07/05 09:34:05;;;;;;;1999.90;999.90;;;23.60;99.50;;;;;;5054782;28;20468;-70
2022/07/05 09:36:53;;;;;;;1999.90;999.90;;;23.90;98.70;;;;;;5054532;28;20458;-70
2022/07/05 09:39:38;;;;;;;1999.90;999.90;;;23.90;99.00;;;;;;5054304;28;20811;-70
2022/07/05 09:42:19;;;;;;;1999.90;999.90;;;23.50;99.60;;;;;;5054668;28;20509;-70
2022/07/05 09:44:46;;;;;;;1999.90;999.90;;;23.20;99.90;;;;;;5052991;28;21008;-70
2022/07/05 09:47:14;;;;;;;1999.90;999.90;;;23.30;99.90;;;;;;5054244;28;20983;-70
2022/07/05 09:49:43;;;;;;;1999.90;999.90;;;23.20;99.50;;;;;;5054158;28;20492;-70
2022/07/05 09:52:12;;;;;;;1999.90;999.90;;;23.10;99.30;;;;;;5054675;28;20485;-71
2022/07/05 09:54:38;;;;;;;1999.90;999.90;;;23.20;98.90;;;;;;5053186;28;20431;-70
2022/07/05 09:57:05;;;;;;;1999.90;999.90;;;23.10;99.10;;;;;;5053816;28;20458;-71
2022/07/05 09:59:32;;;;;;;1999.90;999.90;;;23.00;99.60;;;;;;5053816;28;20434;-71
2022/07/05 10:01:58;;;;;;;1999.90;999.90;;;23.30;99.20;;;;;;5054070;28;20484;-70
2022/07/05 10:04:25;;;;;;;1999.90;999.90;;;23.40;98.50;;;;;;5054246;28;20514;-70
2022/07/05 10:06:52;;;;;;;1999.90;999.90;;;23.50;98.90;;;;;;5071510;23;20567;-68
2022/07/05 10:09:21;;;;;;;1999.90;999.90;;;23.90;98.50;;;;;;5053291;28;20476;-69
2022/07/05 10:11:47;;;;;;;1999.90;999.90;;;24.50;97.00;;;;;;5054458;28;20844;-69
2022/07/05 10:14:20;;;;;;;1999.90;999.90;;;24.50;98.00;;;;;;5049364;28;20458;-69
2022/07/05 10:17:00;;;;;;;1999.90;999.90;;;24.60;98.10;;;;;;5043640;28;20513;-68
2022/07/05 10:19:33;;;;;;;1999.90;999.90;;;24.00;98.40;;;;;;5045278;28;21023;-69
2022/07/05 10:22:00;;;;;;;1999.90;999.90;;;23.40;99.20;;;;;;5050106;28;20994;-69
2022/07/05 10:24:34;;;;;;;1999.90;999.90;;;23.10;99.80;;;;;;5044754;28;20463;-67
2022/07/05 10:27:01;;;;;;;1999.90;999.90;;;22.90;99.90;;;;;;5047735;28;20511;-68
2022/07/05 10:29:29;;;;;;;1999.90;999.90;;;22.70;99.90;;;;;;5044450;28;20938;-68
2022/07/05 10:31:56;;;;;;;1999.90;999.90;;;22.80;99.90;;;;;;5048460;28;20513;-69
2022/07/05 10:34:23;;;;;;;1999.90;999.90;;;22.70;99.90;;;;;;5047317;28;20454;-68
2022/07/05 10:36:49;;;;;;;1999.90;999.90;;;22.80;99.70;;;;;;5046486;28;20474;-68
2022/07/05 10:39:17;;;;;;;1999.90;999.90;;;23.00;99.90;;;;;;5050620;28;20866;-68
2022/07/05 10:41:45;;;;;;;1999.90;999.90;;;23.30;99.20;;;;;;5050260;28;20512;-67
2022/07/05 10:44:25;;;;;;;1999.90;999.90;;;23.30;98.70;;;;;;5048154;28;20466;-68
2022/07/05 10:46:52;;;;;;;1999.90;999.90;;;23.10;99.60;;;;;;5045169;28;21138;-67
2022/07/05 10:49:21;;;;;;;1999.90;999.90;;;23.10;99.00;;;;;;5047394;28;21120;-68
2022/07/05 10:51:48;;;;;;;1999.90;999.90;;;23.30;98.90;;;;;;5049882;28;20457;-69
2022/07/05 10:54:14;;;;;;;1999.90;999.90;;;23.40;97.90;;;;;;5050805;28;20473;-68
2022/07/05 10:56:41;;;;;;;1999.90;999.90;;;23.60;98.60;;;;;;5043600;28;20474;-68
2022/07/05 10:59:11;;;;;;;1999.90;999.90;;;23.80;97.40;;;;;;5048262;28;20458;-68
2022/07/05 11:01:43;;;;;;;1999.90;999.90;;;24.10;97.50;;;;;;5044572;28;21129;-68
2022/07/05 11:04:29;;;;;;;1999.90;999.90;;;24.20;97.00;;;;;;5050483;28;20458;-68
2022/07/05 11:06:57;;;;;;;1999.90;999.90;;;24.60;96.70;;;;;;5049664;28;20993;-69
2022/07/05 11:09:24;;;;;;;1999.90;999.90;;;24.60;96.00;;;;;;5050477;28;20454;-71
2022/07/05 11:12:11;;;;;;;1999.90;999.90;;;24.90;95.10;;;;;;5045047;28;20564;-70
2022/07/05 11:14:45;;;;;;;1999.90;999.90;;;24.70;95.20;;;;;;5043176;28;21015;-71
2022/07/05 11:17:16;;;;;;;1999.90;999.90;;;24.90;95.10;;;;;;5049709;28;20565;-71
2022/07/05 11:20:04;;;;;;;1999.90;999.90;;;24.80;95.30;;;;;;5042807;28;20550;-71
2022/07/05 11:22:31;;;;;;;1999.90;999.90;;;24.80;94.20;;;;;;5048408;28;20458;-70
2022/07/05 11:25:00;;;;;;;1999.90;999.90;;;24.70;94.20;;;;;;5047388;28;20913;-70
2022/07/05 11:27:26;;;;;;;1999.90;999.90;;;24.80;93.80;;;;;;5043908;28;20478;-71
2022/07/05 11:29:56;;;;;;;1999.90;999.90;;;24.90;94.10;;;;;;5046806;28;20946;-71
2022/07/05 11:32:24;;;;;;;1999.90;999.90;;;25.00;93.70;;;;;;5044392;28;20934;-68
2022/07/05 11:34:52;;;;;;;1999.90;999.90;;;24.90;93.70;;;;;;5042332;28;20451;-68
2022/07/05 11:37:21;;;;;;;1999.90;999.90;;;24.70;93.10;;;;;;5042643;28;20474;-68
2022/07/05 11:40:26;;;;;;;1999.90;999.90;;;24.60;93.60;;;;;;5047066;28;20537;-68
2022/07/05 11:42:53;;;;;;;1999.90;999.90;;;24.70;93.30;;;;;;5043736;28;20466;-69
2022/07/05 11:45:21;;;;;;;1999.90;999.90;;;24.70;93.00;;;;;;5047725;28;20989;-68
2022/07/05 11:47:47;;;;;;;1999.90;999.90;;;25.00;92.50;;;;;;5042831;28;20513;-70
2022/07/05 11:50:14;;;;;;;1999.90;999.90;;;25.00;92.50;;;;;;5046805;28;20869;-71
2022/07/05 11:52:42;;;;;;;1999.90;999.90;;;24.50;93.00;;;;;;5049252;28;20466;-67
2022/07/05 11:55:10;;;;;;;1999.90;999.90;;;24.20;93.30;;;;;;5048021;28;20459;-68
2022/07/05 11:57:37;;;;;;;1999.90;999.90;;;24.00;93.50;;;;;;5043243;28;20490;-68
2022/07/05 12:00:05;;;;;;;1999.90;999.90;;;23.80;93.70;;;;;;5048013;28;20454;-68
2022/07/05 12:02:44;;;;;;;1999.90;999.90;;;23.70;93.70;;;;;;5049115;28;20470;-68
2022/07/05 12:05:11;;;;;;;1999.90;999.90;;;23.90;93.50;;;;;;5048755;28;20478;-68
2022/07/05 12:07:38;;;;;;;1999.90;999.90;;;24.10;93.20;;;;;;5042886;28;20487;-68